TimeEDT,TemperatureF,Dew PointF,Humidity,Sea Level PressureIn,VisibilityMPH,Wind Direction,Wind SpeedMPH,Gust SpeedMPH,PrecipitationIn,Events,Conditions,WindDirDegrees,DateUTC
12:53 AM,77.0,-9999,N/A,30.00,9.0,SE,3.5,-,0.03,Rain-Thunderstorm,Light Rain,130,2013-10-02 04:53:00
1:06 AM,77.0,-9999,N/A,30.00,10.0,East,3.5,-,0.01,Rain,Light Rain,100,2013-10-02 05:06:00
1:53 AM,79.0,-9999,N/A,29.99,10.0,ENE,4.6,-,0.02,Rain,Light Rain,60,2013-10-02 05:53:00
2:53 AM,78.1,-9999,N/A,29.97,10.0,ENE,4.6,-,0.01,Rain,Light Rain,70,2013-10-02 06:53:00
3:53 AM,78.1,-9999,N/A,29.94,10.0,Calm,Calm,-,0.00,,Clear,0,2013-10-02 07:53:00
4:53 AM,78.1,-9999,N/A,29.94,10.0,East,3.5,-,N/A,,Clear,80,2013-10-02 08:53:00
5:53 AM,79.0,-9999,N/A,29.95,10.0,ENE,6.9,-,N/A,,Clear,60,2013-10-02 09:53:00
6:53 AM,79.0,-9999,N/A,29.96,10.0,ENE,3.5,-,N/A,,Clear,70,2013-10-02 10:53:00
7:53 AM,77.0,75.0,94,29.98,0.5,ESE,6.9,16.1,0.21,Fog-Rain,Heavy Rain,110,2013-10-02 11:53:00
8:00 AM,75.2,73.4,94,29.98,0.2,Calm,Calm,-,0.23,Fog-Rain,Heavy Rain,0,2013-10-02 12:00:00
8:12 AM,77.0,77.0,100,29.98,2.0,NNE,3.5,-,0.30,Rain,Rain,30,2013-10-02 12:12:00
8:19 AM,78.8,78.8,100,29.98,7.0,East,4.6,-,0.30,Rain,Light Rain,80,2013-10-02 12:19:00
8:36 AM,80.6,78.8,94,29.99,10.0,Calm,Calm,-,0.31,Rain-Thunderstorm,Light Rain,0,2013-10-02 12:36:00
8:53 AM,82.0,77.0,85,29.99,10.0,Variable,3.5,-,0.31,,Partly Cloudy,0,2013-10-02 12:53:00
9:53 AM,84.9,77.0,77,30.00,10.0,ESE,5.8,-,N/A,,Partly Cloudy,110,2013-10-02 13:53:00
10:53 AM,86.0,75.0,70,30.01,10.0,East,6.9,-,N/A,,Partly Cloudy,100,2013-10-02 14:53:00
11:53 AM,88.0,75.9,67,30.00,10.0,East,8.1,-,N/A,,Partly Cloudy,100,2013-10-02 15:53:00
12:53 PM,87.1,75.0,67,29.99,10.0,East,9.2,-,N/A,,Clear,100,2013-10-02 16:53:00
1:53 PM,86.0,75.0,70,29.99,10.0,ESE,8.1,-,N/A,,Scattered Clouds,120,2013-10-02 17:53:00
2:53 PM,88.0,75.0,65,29.97,10.0,ESE,6.9,-,N/A,,Partly Cloudy,120,2013-10-02 18:53:00
3:53 PM,87.1,75.0,67,29.95,10.0,ESE,8.1,-,N/A,,Partly Cloudy,110,2013-10-02 19:53:00
4:53 PM,86.0,75.9,72,29.96,10.0,ESE,6.9,-,N/A,,Scattered Clouds,120,2013-10-02 20:53:00
5:53 PM,84.9,75.0,72,29.96,10.0,East,6.9,-,N/A,,Clear,100,2013-10-02 21:53:00
6:53 PM,84.0,75.9,76,29.97,10.0,East,5.8,-,N/A,,Partly Cloudy,90,2013-10-02 22:53:00
7:53 PM,82.9,75.0,77,29.98,10.0,ESE,3.5,-,N/A,,Partly Cloudy,110,2013-10-02 23:53:00
8:53 PM,82.9,75.0,77,29.99,10.0,ESE,5.8,-,N/A,,Scattered Clouds,120,2013-10-03 00:53:00
9:53 PM,84.0,75.9,76,30.01,10.0,ESE,5.8,-,N/A,,Partly Cloudy,120,2013-10-03 01:53:00
10:53 PM,82.9,75.9,79,30.01,10.0,Variable,5.8,-,N/A,,Partly Cloudy,0,2013-10-03 02:53:00
11:53 PM,82.9,75.9,79,30.01,10.0,East,8.1,-,N/A,,Scattered Clouds,90,2013-10-03 03:53:00